createdAt,value
2022-10-20T00:01:57.583Z,10.10
2022-10-20T00:04:25.444Z,10.10
2022-10-20T00:06:53.240Z,10.10
2022-10-20T00:09:21.010Z,10.00
2022-10-20T00:11:48.843Z,10.00
2022-10-20T00:14:16.596Z,10.10
2022-10-20T00:16:44.392Z,10.10
2022-10-20T00:19:13.713Z,10.10
2022-10-20T00:21:41.478Z,10.00
2022-10-20T00:24:09.254Z,10.00
2022-10-20T00:26:36.971Z,10.00
2022-10-20T00:29:05.142Z,10.00
2022-10-20T00:31:33.197Z,10.00
2022-10-20T00:34:00.891Z,10.00
2022-10-20T00:36:30.033Z,10.00
2022-10-20T00:39:01.604Z,10.00
2022-10-20T00:41:30.233Z,9.90
2022-10-20T00:43:59.986Z,10.00
2022-10-20T00:46:32.580Z,9.90
2022-10-20T00:49:07.322Z,10.00
2022-10-20T00:51:36.572Z,10.00
2022-10-20T00:54:09.452Z,10.00
2022-10-20T00:56:38.500Z,10.00
2022-10-20T00:59:06.666Z,10.00
2022-10-20T01:01:34.655Z,10.00
2022-10-20T01:04:03.345Z,10.00
2022-10-20T01:06:31.387Z,10.00
2022-10-20T01:09:01.002Z,10.00
2022-10-20T01:11:37.594Z,9.90
2022-10-20T01:14:16.596Z,9.90
2022-10-20T01:16:51.876Z,9.90
2022-10-20T01:19:59.083Z,9.90
2022-10-20T01:22:38.241Z,9.90
2022-10-20T01:25:19.303Z,9.90
2022-10-20T01:27:52.809Z,9.90
2022-10-20T01:30:22.256Z,9.90
2022-10-20T01:33:09.693Z,9.90
2022-10-20T01:35:45.951Z,9.90
2022-10-20T01:38:22.220Z,9.90
2022-10-20T01:40:53.683Z,9.90
2022-10-20T01:43:25.701Z,9.90
2022-10-20T01:45:55.050Z,9.90
2022-10-20T01:48:31.954Z,9.90
2022-10-20T01:51:00.535Z,9.90
2022-10-20T01:53:28.602Z,9.90
2022-10-20T01:55:58.304Z,10.00
2022-10-20T01:59:02.467Z,10.00
2022-10-20T02:01:41.611Z,10.00
2022-10-20T02:04:10.461Z,10.00
2022-10-20T02:06:44.157Z,9.90
2022-10-20T02:09:17.572Z,10.00
2022-10-20T02:11:52.093Z,10.00
2022-10-20T02:14:22.604Z,10.00
2022-10-20T02:16:53.124Z,10.00
2022-10-20T02:19:24.547Z,10.00
2022-10-20T02:21:53.522Z,10.00
2022-10-20T02:24:23.960Z,10.00
2022-10-20T02:26:53.475Z,10.00
2022-10-20T02:29:29.056Z,10.00
2022-10-20T02:31:57.541Z,10.00
2022-10-20T02:34:27.435Z,10.00
2022-10-20T02:36:57.688Z,10.00
2022-10-20T02:39:25.565Z,10.00
2022-10-20T02:41:54.485Z,10.00
2022-10-20T02:44:23.840Z,10.00
2022-10-20T02:46:51.683Z,10.00
2022-10-20T02:49:20.363Z,10.00
2022-10-20T02:51:48.399Z,10.00
2022-10-20T02:54:16.144Z,10.00
2022-10-20T02:56:43.873Z,10.00
2022-10-20T02:59:14.669Z,10.00
2022-10-20T03:01:44.187Z,10.00
2022-10-20T03:04:12.694Z,10.00
2022-10-20T03:06:40.908Z,10.00
2022-10-20T03:09:08.891Z,10.00
2022-10-20T03:11:36.770Z,10.00
2022-10-20T03:14:04.537Z,10.00
2022-10-20T03:16:32.443Z,10.00
2022-10-20T03:19:04.628Z,10.00
2022-10-20T03:21:35.113Z,10.00
2022-10-20T03:24:02.822Z,10.00
2022-10-20T03:26:30.573Z,10.00
2022-10-20T03:28:58.292Z,10.00
2022-10-20T03:31:26.064Z,10.00
2022-10-20T03:33:53.847Z,10.00
2022-10-20T03:36:22.954Z,10.00
2022-10-20T03:38:50.685Z,10.00
2022-10-20T03:41:18.463Z,10.00
2022-10-20T03:43:46.183Z,10.00
2022-10-20T03:46:14.139Z,10.00
2022-10-20T03:48:42.247Z,10.00
2022-10-20T03:51:10.087Z,10.00
2022-10-20T03:53:39.176Z,10.00
2022-10-20T03:56:07.618Z,10.00
2022-10-20T03:58:35.618Z,10.00
2022-10-20T04:01:04.206Z,10.00
2022-10-20T04:03:31.898Z,10.00
2022-10-20T04:05:59.631Z,10.00
2022-10-20T04:08:27.476Z,10.00
2022-10-20T04:10:56.603Z,10.00
2022-10-20T04:13:24.336Z,10.00
2022-10-20T04:15:52.027Z,10.00
2022-10-20T04:18:19.762Z,10.00
2022-10-20T04:20:48.462Z,10.00
2022-10-20T04:23:16.342Z,10.00
2022-10-20T04:25:48.330Z,10.00
2022-10-20T04:28:19.046Z,10.00
2022-10-20T04:30:47.727Z,10.00
2022-10-20T04:33:15.491Z,10.00
2022-10-20T04:35:43.216Z,10.00
2022-10-20T04:38:11.013Z,10.00
2022-10-20T04:40:38.762Z,10.00
2022-10-20T04:43:06.505Z,10.00
2022-10-20T04:45:35.570Z,10.00
2022-10-20T04:48:05.831Z,10.00
2022-10-20T04:50:33.573Z,10.00
2022-10-20T04:53:01.691Z,9.90
2022-10-20T04:55:29.951Z,10.00
2022-10-20T04:57:57.650Z,9.90
2022-10-20T05:00:25.355Z,9.90
2022-10-20T05:02:55.516Z,10.00
2022-10-20T05:05:23.256Z,9.90
2022-10-20T05:07:50.975Z,10.00
2022-10-20T05:10:20.663Z,10.00
2022-10-20T05:12:48.365Z,10.00
2022-10-20T05:15:16.136Z,10.00
2022-10-20T05:17:44.278Z,10.00
2022-10-20T05:20:13.524Z,10.00
2022-10-20T05:22:41.226Z,10.00
2022-10-20T05:25:36.211Z,10.10
2022-10-20T05:27:58.619Z,10.00
2022-10-20T05:30:26.351Z,10.10
2022-10-20T05:32:54.123Z,10.10
2022-10-20T05:35:23.166Z,10.10
2022-10-20T05:37:50.854Z,10.10
2022-10-20T05:40:18.577Z,10.10
2022-10-20T05:42:46.315Z,10.10
2022-10-20T05:45:14.056Z,10.10
2022-10-20T05:47:42.650Z,10.10
2022-10-20T05:50:11.187Z,10.10
2022-10-20T05:52:40.228Z,10.10
2022-10-20T05:55:09.531Z,10.10
2022-10-20T05:57:37.243Z,10.10
2022-10-20T06:00:05.934Z,10.20
2022-10-20T06:02:34.185Z,10.30
2022-10-20T06:05:02.119Z,10.20
2022-10-20T06:07:29.850Z,10.20
2022-10-20T06:09:58.883Z,10.20
2022-10-20T06:12:26.640Z,10.20
2022-10-20T06:14:54.356Z,10.20
2022-10-20T06:17:22.124Z,10.10
2022-10-20T06:19:49.836Z,10.10
2022-10-20T06:22:17.532Z,10.10
2022-10-20T06:24:45.258Z,10.10
2022-10-20T06:27:14.308Z,10.10
2022-10-20T06:29:42.011Z,10.10
2022-10-20T06:32:10.826Z,10.10
2022-10-20T06:34:38.572Z,10.10
2022-10-20T06:37:06.272Z,10.10
2022-10-20T06:39:33.997Z,10.10
2022-10-20T06:42:02.580Z,10.10
2022-10-20T06:44:31.743Z,10.10
2022-10-20T06:46:59.444Z,10.20
2022-10-20T06:49:27.188Z,10.10
2022-10-20T06:51:54.958Z,10.20
2022-10-20T06:54:22.733Z,10.20
2022-10-20T06:56:50.461Z,10.20
2022-10-20T06:59:18.191Z,10.20
2022-10-20T07:01:47.328Z,10.20
2022-10-20T07:04:16.315Z,10.30
2022-10-20T07:06:46.346Z,10.30
2022-10-20T07:09:16.102Z,10.30
2022-10-20T07:11:44.644Z,10.30
2022-10-20T07:14:14.082Z,10.30
2022-10-20T07:16:42.143Z,10.40
2022-10-20T07:19:11.278Z,10.40
2022-10-20T07:21:41.603Z,10.40
2022-10-20T07:24:11.030Z,10.40
2022-10-20T07:26:40.600Z,10.50
2022-10-20T07:29:08.700Z,10.50
2022-10-20T07:31:38.479Z,10.50
2022-10-20T07:34:23.872Z,10.60
2022-10-20T07:36:54.075Z,10.60
2022-10-20T07:39:22.080Z,10.60
2022-10-20T07:41:49.809Z,10.70
2022-10-20T07:44:17.963Z,10.70
2022-10-20T07:46:45.763Z,10.80
2022-10-20T07:52:02.867Z,10.80
2022-10-20T07:54:30.690Z,10.90
2022-10-20T07:56:58.406Z,10.90
2022-10-20T07:59:26.403Z,11.00
2022-10-20T08:01:56.070Z,11.00
2022-10-20T08:04:26.491Z,11.10
2022-10-20T08:06:54.257Z,11.10
2022-10-20T08:09:23.288Z,11.10
2022-10-20T08:11:54.586Z,11.10
2022-10-20T08:14:24.151Z,11.10
2022-10-20T08:16:59.854Z,11.20
2022-10-20T08:22:09.469Z,11.30
2022-10-20T08:24:38.744Z,11.30
2022-10-20T08:27:06.570Z,11.40
2022-10-20T08:29:34.307Z,11.40
2022-10-20T08:32:02.006Z,11.50
2022-10-20T08:34:29.803Z,11.50
2022-10-20T08:36:57.565Z,11.60
2022-10-20T08:39:25.273Z,11.60
2022-10-20T08:42:07.578Z,11.70
2022-10-20T08:44:37.519Z,11.70
2022-10-20T08:47:13.738Z,11.80
2022-10-20T08:49:41.587Z,11.80
2022-10-20T08:52:14.751Z,11.80
2022-10-20T08:54:42.511Z,11.90
2022-10-20T08:57:23.237Z,11.90
2022-10-20T08:59:53.478Z,11.90
2022-10-20T09:02:21.711Z,12.00
2022-10-20T09:04:52.089Z,12.00
2022-10-20T09:07:26.329Z,12.10
2022-10-20T09:09:55.963Z,12.10
2022-10-20T09:12:30.189Z,12.10
2022-10-20T09:14:58.900Z,12.20
2022-10-20T09:17:26.906Z,12.20
2022-10-20T09:19:59.101Z,12.20
2022-10-20T09:22:33.321Z,12.30
2022-10-20T09:25:03.478Z,12.30
2022-10-20T09:27:34.816Z,12.20
2022-10-20T09:30:15.498Z,12.20
2022-10-20T09:32:47.838Z,12.20
2022-10-20T09:35:28.272Z,12.20
2022-10-20T09:38:03.439Z,12.20
2022-10-20T09:40:32.367Z,12.30
2022-10-20T09:43:08.547Z,12.20
2022-10-20T09:45:38.915Z,12.30
2022-10-20T09:48:17.685Z,12.30
2022-10-20T09:50:50.910Z,12.30
2022-10-20T09:53:21.624Z,12.30
2022-10-20T09:55:50.992Z,12.30
2022-10-20T09:58:24.796Z,12.30
2022-10-20T10:01:02.695Z,12.40
2022-10-20T10:03:40.081Z,12.40
2022-10-20T10:06:22.806Z,12.40
2022-10-20T10:08:50.573Z,12.50
2022-10-20T10:11:20.138Z,12.50
2022-10-20T10:13:51.499Z,12.60
2022-10-20T10:16:21.765Z,12.70
2022-10-20T10:18:57.795Z,12.90
2022-10-20T10:21:25.707Z,13.10
2022-10-20T10:23:55.308Z,13.20
2022-10-20T10:26:44.795Z,13.30
2022-10-20T10:29:24.934Z,13.30
2022-10-20T10:31:57.828Z,13.40
2022-10-20T10:34:40.249Z,13.30
2022-10-20T10:37:11.455Z,13.30
2022-10-20T10:39:39.308Z,13.20
2022-10-20T10:42:46.599Z,13.20
2022-10-20T10:45:33.199Z,13.20
2022-10-20T10:48:34.095Z,13.20
2022-10-20T10:51:03.624Z,13.20
2022-10-20T10:53:45.964Z,13.20
2022-10-20T10:56:22.134Z,13.20
2022-10-20T10:58:57.400Z,13.20
2022-10-20T11:02:01.342Z,13.20
2022-10-20T11:05:04.700Z,13.20
2022-10-20T11:07:39.668Z,13.30
2022-10-20T11:10:18.534Z,13.30
2022-10-20T11:13:03.953Z,13.30
2022-10-20T11:15:47.724Z,13.30
2022-10-20T11:18:32.760Z,13.30
2022-10-20T11:21:10.821Z,13.30
2022-10-20T11:24:23.865Z,13.30
2022-10-20T11:26:54.447Z,13.30
2022-10-20T11:29:28.740Z,13.40
2022-10-20T11:32:05.945Z,13.30
2022-10-20T11:34:38.254Z,13.30
2022-10-20T11:37:13.817Z,13.40
2022-10-20T11:39:46.688Z,13.30
2022-10-20T11:42:27.765Z,13.30
2022-10-20T11:44:57.353Z,13.30
2022-10-20T11:47:31.278Z,13.40
2022-10-20T11:50:00.569Z,13.30
2022-10-20T11:52:55.883Z,13.40
2022-10-20T11:55:36.135Z,13.40
2022-10-20T11:58:23.075Z,13.40
2022-10-20T12:01:06.914Z,13.40
2022-10-20T12:03:54.555Z,13.40
2022-10-20T12:06:50.219Z,13.40
2022-10-20T12:09:52.364Z,13.30
2022-10-20T12:12:27.262Z,13.30
2022-10-20T12:14:59.099Z,13.30
2022-10-20T12:17:31.999Z,13.30
2022-10-20T12:20:48.564Z,13.30
2022-10-20T12:23:52.976Z,13.30
2022-10-20T12:27:06.953Z,13.30
2022-10-20T12:30:02.988Z,13.20
2022-10-20T12:33:00.877Z,13.20
2022-10-20T12:35:54.717Z,13.10
2022-10-20T12:38:24.527Z,13.10
2022-10-20T12:40:58.634Z,13.10
2022-10-20T12:43:34.337Z,13.10
2022-10-20T12:46:08.981Z,13.00
2022-10-20T12:48:43.479Z,13.00
2022-10-20T12:51:24.202Z,13.00
2022-10-20T12:53:57.421Z,13.00
2022-10-20T12:56:32.829Z,13.00
2022-10-20T12:59:34.375Z,13.00
2022-10-20T13:02:42.440Z,13.00
2022-10-20T13:05:47.693Z,13.00
2022-10-20T13:08:30.125Z,13.00
2022-10-20T13:11:13.818Z,13.00
2022-10-20T13:13:56.632Z,13.00
2022-10-20T13:16:30.933Z,13.00
2022-10-20T13:18:58.994Z,13.00
2022-10-20T13:21:33.603Z,13.10
2022-10-20T13:24:13.375Z,13.10
2022-10-20T13:26:49.265Z,13.10
2022-10-20T13:29:22.178Z,13.20
2022-10-20T13:32:03.764Z,13.20
2022-10-20T13:34:38.041Z,13.20
2022-10-20T13:37:22.704Z,13.20
2022-10-20T13:40:00.558Z,13.20
2022-10-20T13:42:41.028Z,13.20
2022-10-20T13:45:18.594Z,13.20
2022-10-20T13:47:51.742Z,13.20
2022-10-20T13:50:23.491Z,13.20
2022-10-20T13:52:54.256Z,13.20
2022-10-20T13:55:24.117Z,13.20
2022-10-20T13:57:55.462Z,13.20
2022-10-20T14:00:26.593Z,13.20
2022-10-20T14:03:00.860Z,13.20
2022-10-20T14:05:30.296Z,13.20
2022-10-20T14:08:04.719Z,13.20
2022-10-20T14:10:40.311Z,13.20
2022-10-20T14:13:11.586Z,13.20
2022-10-20T14:15:39.540Z,13.20
2022-10-20T14:18:21.222Z,13.20
2022-10-20T14:20:56.496Z,13.20
2022-10-20T14:23:25.060Z,13.20
2022-10-20T14:25:54.643Z,13.20
2022-10-20T14:28:23.263Z,13.20
2022-10-20T14:30:52.568Z,13.20
2022-10-20T14:33:21.903Z,13.20
2022-10-20T14:35:53.511Z,13.20
2022-10-20T14:38:25.347Z,13.20
2022-10-20T14:40:55.642Z,13.20
2022-10-20T14:43:33.417Z,13.20
2022-10-20T14:46:02.728Z,13.20
2022-10-20T14:48:36.883Z,13.10
2022-10-20T14:51:34.082Z,13.10
2022-10-20T14:54:27.110Z,13.10
2022-10-20T14:56:57.319Z,13.10
2022-10-20T14:59:27.554Z,13.10
2022-10-20T15:02:07.739Z,13.10
2022-10-20T15:04:37.799Z,13.10
2022-10-20T15:07:11.819Z,13.10
2022-10-20T15:09:42.004Z,13.10
2022-10-20T15:12:17.670Z,13.00
2022-10-20T15:14:47.960Z,13.00
2022-10-20T15:17:37.875Z,13.00
2022-10-20T15:20:33.100Z,13.00
2022-10-20T15:23:02.360Z,13.00
2022-10-20T15:25:31.892Z,13.00
2022-10-20T15:28:00.182Z,13.00
2022-10-20T15:30:28.358Z,13.00
2022-10-20T15:32:56.369Z,13.00
2022-10-20T15:35:24.455Z,13.00
2022-10-20T15:37:54.781Z,13.00
2022-10-20T15:40:22.722Z,13.00
2022-10-20T15:42:50.469Z,13.00
2022-10-20T15:45:20.731Z,13.00
2022-10-20T15:47:48.696Z,13.00
2022-10-20T15:50:18.478Z,13.00
2022-10-20T15:52:48.317Z,13.00
2022-10-20T15:55:23.127Z,13.00
2022-10-20T15:57:51.868Z,13.00
2022-10-20T16:00:21.107Z,13.00
2022-10-20T16:02:49.965Z,13.00
2022-10-20T16:05:18.704Z,12.90
2022-10-20T16:07:46.563Z,12.90
2022-10-20T16:10:14.583Z,12.90
2022-10-20T16:12:43.695Z,12.90
2022-10-20T16:15:12.224Z,12.90
2022-10-20T16:17:40.024Z,12.90
2022-10-20T16:20:09.227Z,12.80
2022-10-20T16:22:37.451Z,12.80
2022-10-20T16:25:06.105Z,12.80
2022-10-20T16:27:34.925Z,12.80
2022-10-20T16:30:06.080Z,12.70
2022-10-20T16:32:35.475Z,12.70
2022-10-20T16:35:04.076Z,12.70
2022-10-20T16:37:32.676Z,12.70
2022-10-20T16:40:00.861Z,12.60
2022-10-20T16:42:30.024Z,12.60
2022-10-20T16:44:58.551Z,12.60
2022-10-20T16:47:27.727Z,12.60
2022-10-20T16:49:55.459Z,12.60
2022-10-20T16:52:23.309Z,12.60
2022-10-20T16:54:51.067Z,12.60
2022-10-20T16:57:18.885Z,12.60
2022-10-20T16:59:49.873Z,12.60
2022-10-20T17:02:19.139Z,12.60
2022-10-20T17:04:50.725Z,12.50
2022-10-20T17:07:18.766Z,12.50
2022-10-20T17:09:47.138Z,12.50
2022-10-20T17:12:14.871Z,12.50
2022-10-20T17:14:42.903Z,12.50
2022-10-20T17:17:10.645Z,12.50
2022-10-20T17:19:40.832Z,12.50
2022-10-20T17:24:38.867Z,12.50
2022-10-20T17:27:06.582Z,12.50
2022-10-20T17:29:34.352Z,12.50
2022-10-20T17:32:02.171Z,12.40
2022-10-20T17:34:29.898Z,12.40
2022-10-20T17:36:57.662Z,12.40
2022-10-20T17:39:27.762Z,12.40
2022-10-20T17:41:55.498Z,12.40
2022-10-20T17:44:23.248Z,12.40
2022-10-20T17:46:51.071Z,12.50
2022-10-20T17:49:18.975Z,12.40
2022-10-20T17:51:46.869Z,12.40
2022-10-20T17:54:14.594Z,12.40
2022-10-20T17:56:43.666Z,12.40
2022-10-20T18:01:40.737Z,12.40
2022-10-20T18:04:11.186Z,12.40
2022-10-20T18:06:39.532Z,12.40
2022-10-20T18:09:10.672Z,12.40
2022-10-20T18:11:40.430Z,12.40
2022-10-20T18:14:09.707Z,12.40
2022-10-20T18:16:39.422Z,12.40
2022-10-20T18:19:08.999Z,12.40
2022-10-20T18:21:36.738Z,12.40
2022-10-20T18:24:06.937Z,12.40
2022-10-20T18:26:36.789Z,12.40
2022-10-20T18:29:07.276Z,12.30
2022-10-20T18:31:38.480Z,12.30
2022-10-20T18:34:08.840Z,12.40
2022-10-20T18:36:40.556Z,12.30
2022-10-20T18:39:11.719Z,12.30
2022-10-20T18:41:42.484Z,12.30
2022-10-20T18:44:13.007Z,12.40
2022-10-20T18:46:43.312Z,12.30
2022-10-20T18:49:14.638Z,12.30
2022-10-20T18:51:42.918Z,12.30
2022-10-20T18:54:10.784Z,12.30
2022-10-20T18:56:38.596Z,12.30
2022-10-20T18:59:08.466Z,12.30
2022-10-20T19:01:38.784Z,12.30
2022-10-20T19:04:09.795Z,12.30
2022-10-20T19:06:39.734Z,12.30
2022-10-20T19:09:09.741Z,12.30
2022-10-20T19:11:39.552Z,12.30
2022-10-20T19:14:09.471Z,12.30
2022-10-20T19:16:38.271Z,12.30
2022-10-20T19:19:08.636Z,12.30
2022-10-20T19:21:37.133Z,12.30
2022-10-20T19:24:07.450Z,12.30
2022-10-20T19:26:36.862Z,12.30
2022-10-20T19:29:08.471Z,12.30
2022-10-20T19:31:39.539Z,12.30
2022-10-20T19:34:11.979Z,12.30
2022-10-20T19:36:41.158Z,12.30
2022-10-20T19:39:11.012Z,12.30
2022-10-20T19:41:38.851Z,12.30
2022-10-20T19:44:07.497Z,12.30
2022-10-20T19:46:35.328Z,12.30
2022-10-20T19:49:03.063Z,12.30
2022-10-20T19:51:32.394Z,12.30
2022-10-20T19:54:00.122Z,12.30
2022-10-20T19:56:27.895Z,12.30
2022-10-20T19:58:56.134Z,12.30
2022-10-20T20:01:24.201Z,12.30
2022-10-20T20:03:51.945Z,12.30
2022-10-20T20:06:22.166Z,12.30
2022-10-20T20:08:56.864Z,12.30
2022-10-20T20:11:26.851Z,12.30
2022-10-20T20:13:57.629Z,12.30
2022-10-20T20:16:26.341Z,12.30
2022-10-20T20:18:54.171Z,12.30
2022-10-20T20:21:22.800Z,12.30
2022-10-20T20:23:59.423Z,12.30
2022-10-20T20:26:27.867Z,12.30
2022-10-20T20:28:56.180Z,12.30
2022-10-20T20:31:24.444Z,12.30
2022-10-20T20:33:52.747Z,12.30
2022-10-20T20:36:20.883Z,12.30
2022-10-20T20:38:49.857Z,12.30
2022-10-20T20:41:20.684Z,12.40
2022-10-20T20:43:48.460Z,12.40
2022-10-20T20:46:18.495Z,12.40
2022-10-20T20:48:46.340Z,12.30
2022-10-20T20:51:14.878Z,12.40
2022-10-20T20:53:43.029Z,12.40
2022-10-20T20:56:12.630Z,12.30
2022-10-20T20:58:41.904Z,12.30
2022-10-20T21:01:12.494Z,12.30
2022-10-20T21:03:40.823Z,12.30
2022-10-20T21:06:10.099Z,12.30
2022-10-20T21:08:39.785Z,12.30
2022-10-20T21:11:08.048Z,12.30
2022-10-20T21:13:36.791Z,12.30
2022-10-20T21:16:10.787Z,12.30
2022-10-20T21:18:38.877Z,12.30
2022-10-20T21:21:12.239Z,12.30
2022-10-20T21:23:40.450Z,12.30
2022-10-20T21:26:09.010Z,12.30
2022-10-20T21:28:36.896Z,12.30
2022-10-20T21:31:05.659Z,12.30
2022-10-20T21:33:35.879Z,12.30
2022-10-20T21:36:04.670Z,12.40
2022-10-20T21:38:33.320Z,12.40
2022-10-20T21:41:05.038Z,12.40
2022-10-20T21:43:34.116Z,12.40
2022-10-20T21:46:11.367Z,12.40
2022-10-20T21:48:41.145Z,12.50
2022-10-20T21:51:10.684Z,12.50
2022-10-20T21:53:38.870Z,12.50
2022-10-20T21:56:07.515Z,12.50
2022-10-20T21:58:35.707Z,12.50
2022-10-20T22:01:10.193Z,12.60
2022-10-20T22:03:38.058Z,12.60
2022-10-20T22:06:07.729Z,12.60
2022-10-20T22:08:36.520Z,12.60
2022-10-20T22:11:05.622Z,12.60
2022-10-20T22:13:34.453Z,12.60
2022-10-20T22:16:02.750Z,12.60
2022-10-20T22:18:30.450Z,12.60
2022-10-20T22:20:58.239Z,12.70
2022-10-20T22:23:27.303Z,12.70
2022-10-20T22:25:55.046Z,12.70
2022-10-20T22:28:22.743Z,12.70
2022-10-20T22:30:50.550Z,12.70
2022-10-20T22:33:18.739Z,12.70
2022-10-20T22:35:46.483Z,12.80
2022-10-20T22:38:14.415Z,12.80
2022-10-20T22:40:43.470Z,12.80
2022-10-20T22:43:11.188Z,12.80
2022-10-20T22:45:38.908Z,12.80
2022-10-20T22:48:07.070Z,12.80
2022-10-20T22:50:34.902Z,12.80
2022-10-20T22:53:02.656Z,12.90
2022-10-20T22:55:30.386Z,12.90
2022-10-20T22:57:59.567Z,12.90
2022-10-20T23:00:27.308Z,12.90
2022-10-20T23:02:55.020Z,12.90
2022-10-20T23:05:22.743Z,13.00
2022-10-20T23:07:50.556Z,13.00
2022-10-20T23:10:18.352Z,13.00
2022-10-20T23:12:46.039Z,13.00
2022-10-20T23:15:15.107Z,13.00
2022-10-20T23:17:42.876Z,13.00
2022-10-20T23:20:11.834Z,13.00
2022-10-20T23:22:39.592Z,13.00
2022-10-20T23:25:08.051Z,13.00
2022-10-20T23:27:37.117Z,13.00
2022-10-20T23:30:05.628Z,13.10
2022-10-20T23:32:34.714Z,13.10
2022-10-20T23:35:02.455Z,13.10
2022-10-20T23:37:30.168Z,13.10
2022-10-20T23:39:57.894Z,13.10
2022-10-20T23:42:25.712Z,13.10
2022-10-20T23:44:53.470Z,13.10
2022-10-20T23:47:21.209Z,13.10
2022-10-20T23:49:50.274Z,13.10
2022-10-20T23:52:17.995Z,13.20
2022-10-20T23:54:45.730Z,13.20
2022-10-20T23:57:13.475Z,13.20
2022-10-20T23:59:41.191Z,13.20
